Time;durP1;ratioP1;P1;durP2;ratioP2;P2;SDS_P1;SDS_P2;PMS_P1;PMS_P2;Temp;Humidity;BMP_temperature;BMP_pressure;BME280_temperature;BME280_humidity;BME280_pressure;Samples;Min_cycle;Max_cycle;Signal;HPM_P1;HPM_P2
2021/11/17 02:26:11;;;;;;;72.45;44.03;;;;;;;4.40;100.00;101196.88;5013663;28;20099;-70
2021/11/17 02:28:55;;;;;;;71.40;44.08;;;;;;;4.37;100.00;101191.72;5010092;28;20390;-71
2021/11/17 02:31:44;;;;;;;67.78;44.33;;;;;;;4.36;100.00;101189.13;4995405;28;20683;-71
2021/11/17 02:34:21;;;;;;;71.47;43.28;;;;;;;4.35;100.00;101193.56;5009068;28;20042;-71
2021/11/17 02:36:56;;;;;;;77.15;46.47;;;;;;;4.36;100.00;101187.31;5009592;28;20474;-71
2021/11/17 02:39:54;;;;;;;73.05;46.08;;;;;;;4.32;100.00;101184.91;5014771;28;20433;-70
2021/11/17 02:42:26;;;;;;;69.82;44.33;;;;;;;4.32;100.00;101182.25;4973057;28;20042;-71
2021/11/17 02:44:51;;;;;;;67.20;43.88;;;;;;;4.32;100.00;101182.25;5012499;28;20024;-70
2021/11/17 02:47:27;;;;;;;74.72;44.83;;;;;;;4.28;100.00;101184.19;5013141;28;20229;-71
2021/11/17 02:49:59;;;;;;;75.05;45.00;;;;;;;4.27;100.00;101182.47;5014536;28;20034;-71
2021/11/17 02:52:27;;;;;;;69.25;43.65;;;;;;;4.27;100.00;101187.78;5008096;28;20558;-71
2021/11/17 02:55:27;;;;;;;66.85;43.10;;;;;;;4.25;100.00;101187.00;5014272;28;20037;-70
2021/11/17 02:57:58;;;;;;;70.00;44.20;;;;;;;4.19;100.00;101167.84;5013781;28;20481;-70
2021/11/17 03:00:51;;;;;;;74.78;44.53;;;;;;;4.26;100.00;101178.09;5012492;28;20497;-71
2021/11/17 03:03:40;;;;;;;72.18;44.35;;;;;;;4.14;100.00;101164.56;5012541;28;20389;-71
2021/11/17 03:06:14;;;;;;;73.28;44.58;;;;;;;4.22;100.00;101176.53;4966836;28;20038;-71
2021/11/17 03:09:01;;;;;;;67.00;41.92;;;;;;;4.17;100.00;101167.06;5011369;28;20470;-71
2021/11/17 03:11:29;;;;;;;67.97;42.55;;;;;;;4.21;100.00;101169.50;5010750;28;20099;-71
2021/11/17 03:14:00;;;;;;;67.63;42.17;;;;;;;4.21;100.00;101165.97;5009562;28;20053;-71
2021/11/17 03:16:36;;;;;;;66.88;43.00;;;;;;;4.22;100.00;101159.72;5011206;28;20103;-71
2021/11/17 03:19:23;;;;;;;69.40;43.60;;;;;;;4.16;100.00;101170.66;5007178;28;20032;-70
2021/11/17 03:22:03;;;;;;;67.43;42.70;;;;;;;4.13;100.00;101161.03;5007157;28;20537;-71
2021/11/17 03:24:50;;;;;;;67.28;43.63;;;;;;;4.09;100.00;101170.06;5008255;28;20505;-71
2021/11/17 03:27:30;;;;;;;68.95;42.80;;;;;;;4.05;100.00;101155.25;4991592;28;20028;-71
2021/11/17 03:30:21;;;;;;;71.38;43.47;;;;;;;4.04;100.00;101163.28;4993800;28;20091;-71
2021/11/17 03:32:52;;;;;;;67.63;43.20;;;;;;;4.04;100.00;101163.28;5011263;28;20030;-71
2021/11/17 03:35:27;;;;;;;69.15;42.90;;;;;;;4.00;100.00;101156.41;5010090;28;20054;-71
2021/11/17 03:38:19;;;;;;;67.07;42.40;;;;;;;3.94;100.00;101162.00;5011599;28;20029;-71
2021/11/17 03:41:06;;;;;;;65.78;39.88;;;;;;;3.90;100.00;101153.31;5010378;28;20065;-71
2021/11/17 03:43:37;;;;;;;68.45;42.08;;;;;;;3.83;100.00;101159.84;5011638;28;20038;-71
2021/11/17 03:46:24;;;;;;;70.10;41.50;;;;;;;3.76;100.00;101155.75;5011611;28;21511;-71
2021/11/17 03:48:49;;;;;;;69.22;41.22;;;;;;;3.68;99.50;101152.56;5011357;28;20033;-71
2021/11/17 03:51:17;;;;;;;64.65;41.50;;;;;;;3.58;99.13;101151.28;5011570;28;20041;-71
2021/11/17 03:53:55;;;;;;;63.25;40.50;;;;;;;3.53;99.17;101153.31;4993640;28;20068;-71
2021/11/17 03:56:30;;;;;;;64.30;42.47;;;;;;;3.41;98.78;101148.56;5009781;28;20026;-71
2021/11/17 03:59:12;;;;;;;68.82;41.97;;;;;;;3.35;99.27;101154.13;4993683;28;20053;-71
2021/11/17 04:01:46;;;;;;;68.47;41.42;;;;;;;3.29;99.26;101158.84;4993766;28;20442;-71
2021/11/17 04:04:24;;;;;;;68.00;41.92;;;;;;;3.19;99.40;101155.75;5009480;28;20552;-70
2021/11/17 04:06:58;;;;;;;68.07;41.20;;;;;;;3.12;99.49;101148.13;4993474;28;20469;-70
2021/11/17 04:09:36;;;;;;;69.40;42.72;;;;;;;3.08;99.62;101165.09;5010636;28;20100;-70
2021/11/17 04:12:29;;;;;;;68.05;42.72;;;;;;;2.98;99.75;101148.75;5009690;28;20036;-71
2021/11/17 04:15:07;;;;;;;69.32;41.42;;;;;;;2.93;99.77;101152.53;5010945;28;20045;-70
2021/11/17 04:18:23;;;;;;;67.80;40.25;;;;;;;2.83;99.82;101151.22;5010731;28;20101;-70
2021/11/17 04:21:19;;;;;;;64.45;40.20;;;;;;;2.79;99.88;101165.50;5003904;28;20050;-70
2021/11/17 04:24:03;;;;;;;71.25;42.20;;;;;;;2.73;100.00;101158.66;4993410;28;20584;-70
2021/11/17 04:26:44;;;;;;;69.97;40.28;;;;;;;2.69;100.00;101158.84;5009129;28;20417;-70
2021/11/17 04:29:15;;;;;;;67.00;40.97;;;;;;;2.67;100.00;101166.88;4976617;28;20053;-70
2021/11/17 04:31:53;;;;;;;68.72;40.38;;;;;;;2.54;100.00;101154.22;5010538;28;20026;-70
2021/11/17 04:34:18;;;;;;;69.05;41.90;;;;;;;2.54;99.95;101163.00;5009669;28;20053;-70
2021/11/17 04:36:56;;;;;;;68.75;41.83;;;;;;;2.49;100.00;101146.47;5011709;28;20049;-70
2021/11/17 04:39:36;;;;;;;67.07;41.17;;;;;;;2.46;99.80;101154.53;5009959;28;20021;-70
2021/11/17 04:42:24;;;;;;;68.63;41.72;;;;;;;2.41;99.69;101151.22;5009161;28;20033;-70
2021/11/17 04:45:14;;;;;;;64.07;39.60;;;;;;;2.40;99.84;101157.44;5010123;28;20077;-70
2021/11/17 04:48:00;;;;;;;70.80;41.42;;;;;;;2.34;99.70;101152.38;5008335;28;20026;-70
2021/11/17 04:50:44;;;;;;;65.75;39.42;;;;;;;2.30;100.00;101145.50;5009375;28;20537;-70
2021/11/17 04:53:16;;;;;;;69.68;42.70;;;;;;;2.24;99.84;101146.63;5010238;28;20041;-70
2021/11/17 04:55:41;;;;;;;64.13;39.38;;;;;;;2.24;100.00;101154.56;5008943;28;20084;-70
2021/11/17 04:58:29;;;;;;;65.00;39.60;;;;;;;2.20;100.00;101154.75;5010220;28;20029;-70
2021/11/17 05:01:25;;;;;;;70.68;42.15;;;;;;;2.20;99.93;101149.47;5010331;28;20068;-70
2021/11/17 05:04:03;;;;;;;64.82;41.05;;;;;;;2.19;100.00;101147.72;5010101;28;20426;-70
2021/11/17 05:06:40;;;;;;;66.47;40.58;;;;;;;2.19;100.00;101150.34;5010021;28;20028;-70
2021/11/17 05:09:30;;;;;;;72.00;42.15;;;;;;;2.16;100.00;101147.88;5010003;28;20390;-70
2021/11/17 05:12:15;;;;;;;66.35;40.60;;;;;;;2.13;100.00;101137.41;5009837;28;20021;-70
2021/11/17 05:14:43;;;;;;;68.45;39.92;;;;;;;2.12;100.00;101147.13;5008968;28;20036;-70
2021/11/17 05:17:24;;;;;;;68.03;41.00;;;;;;;2.12;100.00;101156.81;5009479;28;20036;-70
2021/11/17 05:20:10;;;;;;;68.38;42.63;;;;;;;2.09;100.00;101149.88;5009841;28;20034;-70
2021/11/17 05:23:02;;;;;;;69.57;41.38;;;;;;;2.08;100.00;101142.00;5009902;28;20315;-70
2021/11/17 05:25:49;;;;;;;71.15;40.75;;;;;;;2.09;100.00;101147.22;4998455;28;20483;-70
2021/11/17 05:28:34;;;;;;;73.82;41.72;;;;;;;2.08;100.00;101139.34;4989077;28;20387;-70
2021/11/17 05:31:09;;;;;;;69.32;39.15;;;;;;;2.02;100.00;101134.31;5008334;28;20061;-70
2021/11/17 05:33:46;;;;;;;69.50;42.38;;;;;;;2.09;100.00;101141.06;5004553;28;20045;-70
2021/11/17 05:36:23;;;;;;;71.47;41.13;;;;;;;2.08;100.00;101153.47;4989564;28;20038;-70
2021/11/17 05:39:04;;;;;;;67.82;40.78;;;;;;;2.07;100.00;101148.22;4988201;28;20030;-70
2021/11/17 05:41:55;;;;;;;65.13;39.72;;;;;;;2.05;100.00;101152.69;4989471;28;20189;-70
2021/11/17 05:44:43;;;;;;;68.07;41.17;;;;;;;2.04;100.00;101148.34;4987456;28;20033;-71
2021/11/17 05:47:22;;;;;;;71.47;41.67;;;;;;;2.04;100.00;101156.28;4970398;28;20038;-71
2021/11/17 05:50:17;;;;;;;70.28;41.65;;;;;;;2.00;100.00;101154.69;4987575;28;20570;-71
2021/11/17 05:52:57;;;;;;;75.57;42.50;;;;;;;1.94;100.00;101153.13;4961899;28;20121;-70
2021/11/17 05:55:35;;;;;;;67.47;41.05;;;;;;;2.00;100.00;101174.03;4968865;28;20027;-70
2021/11/17 05:58:28;;;;;;;68.90;39.40;;;;;;;1.95;100.00;101168.09;4984768;28;20031;-70
2021/11/17 06:01:10;;;;;;;72.65;41.30;;;;;;;1.95;100.00;101169.88;4984640;28;20114;-70
2021/11/17 06:03:55;;;;;;;75.70;40.88;;;;;;;1.90;100.00;101164.75;4986844;28;20030;-70
2021/11/17 06:06:22;;;;;;;71.25;40.60;;;;;;;1.87;100.00;101175.44;4978942;28;20503;-70
2021/11/17 06:08:47;;;;;;;71.32;41.03;;;;;;;1.87;100.00;101175.44;4966148;28;20057;-70
2021/11/17 06:11:13;;;;;;;72.97;42.47;;;;;;;1.80;100.00;101166.03;4969668;28;20031;-71
2021/11/17 06:13:38;;;;;;;79.00;43.50;;;;;;;1.83;100.00;101172.97;4970492;28;20438;-70
2021/11/17 06:16:06;;;;;;;74.55;42.30;;;;;;;1.86;100.00;101184.31;4969978;28;20479;-70
2021/11/17 06:18:34;;;;;;;91.55;45.83;;;;;;;1.88;100.00;101176.31;4984581;28;20037;-70
2021/11/17 06:21:03;;;;;;;91.25;50.65;;;;;;;1.88;100.00;101177.19;4969942;28;20491;-70
2021/11/17 06:23:35;;;;;;;102.82;52.95;;;;;;;1.86;100.00;101179.03;4969688;28;20030;-71
2021/11/17 06:26:05;;;;;;;89.82;49.65;;;;;;;1.89;100.00;101173.63;4969782;28;20184;-70
2021/11/17 06:28:31;;;;;;;89.40;48.08;;;;;;;1.89;100.00;101170.97;4969600;28;20038;-70
2021/11/17 06:31:00;;;;;;;87.85;47.13;;;;;;;1.92;100.00;101176.16;4977559;28;20490;-70
2021/11/17 06:33:25;;;;;;;89.80;48.45;;;;;;;1.90;100.00;101169.16;4977654;28;20046;-71
2021/11/17 06:35:51;;;;;;;83.85;45.67;;;;;;;1.89;100.00;101162.16;5008662;28;20113;-70
2021/11/17 06:38:19;;;;;;;83.95;46.22;;;;;;;1.95;100.00;101168.09;5008132;28;20371;-70
2021/11/17 06:40:47;;;;;;;94.10;49.05;;;;;;;1.92;100.00;101162.91;5008098;28;20026;-70
2021/11/17 06:43:13;;;;;;;86.50;47.05;;;;;;;1.94;100.00;101166.34;5008345;28;20025;-70
2021/11/17 06:45:42;;;;;;;91.68;48.15;;;;;;;2.03;100.00;101181.88;5008615;28;20172;-70
2021/11/17 06:48:09;;;;;;;93.40;46.97;;;;;;;2.06;100.00;101184.38;5008260;28;20033;-70
2021/11/17 06:50:36;;;;;;;92.80;47.83;;;;;;;2.08;100.00;101185.22;5008498;28;20038;-70
2021/11/17 06:53:03;;;;;;;86.57;45.15;;;;;;;2.11;100.00;101173.63;5008427;28;20025;-70
2021/11/17 06:55:29;;;;;;;87.78;46.70;;;;;;;2.17;100.00;101182.16;5008220;28;20045;-70
2021/11/17 06:57:54;;;;;;;88.60;46.78;;;;;;;2.17;100.00;101181.31;5008165;28;20018;-69
2021/11/17 07:00:23;;;;;;;95.20;48.10;;;;;;;2.08;100.00;101163.16;5008530;28;20053;-70
2021/11/17 07:02:49;;;;;;;92.45;46.30;;;;;;;2.25;100.00;101179.22;5010806;28;20045;-70
2021/11/17 07:05:16;;;;;;;96.38;47.33;;;;;;;2.30;100.00;101182.56;5011784;28;20152;-69
2021/11/17 07:07:43;;;;;;;94.10;49.10;;;;;;;2.29;100.00;101172.91;5011267;28;20030;-70
2021/11/17 07:10:12;;;;;;;88.03;47.53;;;;;;;2.39;100.00;101177.75;5009895;28;20026;-70
2021/11/17 07:12:37;;;;;;;91.97;49.55;;;;;;;2.49;100.00;101180.00;5011267;28;20044;-70
2021/11/17 07:15:04;;;;;;;88.82;45.75;;;;;;;2.55;100.00;101179.78;4993256;28;20022;-70
2021/11/17 07:17:29;;;;;;;81.90;46.75;;;;;;;2.56;100.00;101160.31;5010828;28;20080;-70
2021/11/17 07:19:57;;;;;;;87.78;47.65;;;;;;;2.75;100.00;101171.84;5013363;28;20435;-69
2021/11/17 07:22:23;;;;;;;82.97;47.13;;;;;;;2.84;100.00;101172.31;5012279;28;20053;-69
2021/11/17 07:24:48;;;;;;;85.13;48.38;;;;;;;2.93;100.00;101171.06;5013580;28;20084;-70
2021/11/17 07:27:22;;;;;;;91.28;49.70;;;;;;;3.01;100.00;101175.13;5013517;28;20048;-69
2021/11/17 07:29:49;;;;;;;80.50;46.78;;;;;;;3.10;100.00;101176.50;5013438;28;20034;-69
2021/11/17 07:32:15;;;;;;;80.60;48.00;;;;;;;3.17;100.00;101175.28;5010855;28;20116;-69
2021/11/17 07:34:40;;;;;;;79.82;45.17;;;;;;;3.25;100.00;101168.72;5013115;28;20487;-69
2021/11/17 07:37:06;;;;;;;82.18;45.60;;;;;;;3.31;100.00;101165.81;5014455;28;20157;-70
2021/11/17 07:39:31;;;;;;;73.50;43.53;;;;;;;3.35;100.00;101158.59;5013359;28;20022;-70
2021/11/17 07:41:57;;;;;;;70.43;42.78;;;;;;;3.48;100.00;101167.72;5014680;28;20026;-69
2021/11/17 07:44:23;;;;;;;72.82;42.35;;;;;;;3.56;100.00;101169.09;4994928;28;20073;-70
2021/11/17 07:46:52;;;;;;;73.38;42.70;;;;;;;3.63;100.00;101172.28;5012585;28;20030;-70
2021/11/17 07:49:19;;;;;;;74.00;40.33;;;;;;;3.73;100.00;101173.59;5014016;28;20462;-70
2021/11/17 07:51:44;;;;;;;77.90;42.70;;;;;;;3.79;100.00;101182.16;5015717;28;20147;-70
2021/11/17 07:54:10;;;;;;;74.05;42.75;;;;;;;3.87;100.00;101179.97;5012666;28;20030;-70
2021/11/17 07:56:39;;;;;;;74.57;42.00;;;;;;;3.94;100.00;101181.41;5012097;28;20033;-70
2021/11/17 07:59:07;;;;;;;72.68;41.42;;;;;;;4.01;100.00;101184.66;5010742;28;20022;-71
2021/11/17 08:01:34;;;;;;;75.60;42.55;;;;;;;4.07;100.00;101184.38;5013172;28;20026;-70
2021/11/17 08:03:59;;;;;;;69.60;41.78;;;;;;;4.12;100.00;101177.03;5013512;28;20107;-71
2021/11/17 08:06:26;;;;;;;68.30;41.92;;;;;;;4.18;100.00;101188.22;5014588;28;20033;-70
2021/11/17 08:08:53;;;;;;;70.28;42.10;;;;;;;4.22;100.00;101183.63;5013686;28;20037;-70
2021/11/17 08:11:20;;;;;;;69.90;43.53;;;;;;;4.26;100.00;101180.75;5014280;28;20068;-71
2021/11/17 08:13:46;;;;;;;67.80;39.67;;;;;;;4.36;100.00;101186.47;5015431;28;20104;-71
2021/11/17 08:16:13;;;;;;;72.57;42.60;;;;;;;4.43;100.00;101194.09;5014445;28;20032;-71
2021/11/17 08:18:39;;;;;;;75.45;43.42;;;;;;;4.43;100.00;101185.25;5014750;28;20022;-71
2021/11/17 08:21:07;;;;;;;69.82;42.35;;;;;;;4.52;100.00;101187.47;4997551;28;20451;-71
2021/11/17 08:23:33;;;;;;;69.97;42.28;;;;;;;4.52;100.00;101180.31;5015017;28;20054;-71
2021/11/17 08:25:59;;;;;;;63.00;40.53;;;;;;;4.61;100.00;101186.97;5014306;28;20045;-71
2021/11/17 08:28:25;;;;;;;71.30;43.10;;;;;;;4.69;100.00;101190.13;5013715;28;20033;-71
2021/11/17 08:30:51;;;;;;;74.82;41.78;;;;;;;4.76;100.00;101191.53;5013292;28;20401;-71
2021/11/17 08:33:18;;;;;;;67.75;41.78;;;;;;;4.81;100.00;101189.53;5010507;28;20088;-71
2021/11/17 08:35:44;;;;;;;71.75;41.05;;;;;;;4.87;100.00;101189.19;4993629;28;20599;-72
2021/11/17 08:38:14;;;;;;;67.20;41.97;;;;;;;4.99;100.00;101199.22;5013806;28;20363;-71
2021/11/17 08:40:43;;;;;;;71.20;42.10;;;;;;;4.99;100.00;101185.06;5013498;28;20026;-71
2021/11/17 08:43:09;;;;;;;73.18;43.03;;;;;;;5.10;99.87;101193.34;4995320;28;20039;-71
2021/11/17 08:45:36;;;;;;;72.90;43.22;;;;;;;5.13;99.71;101182.56;5013173;28;20030;-71
2021/11/17 08:48:02;;;;;;;71.28;41.97;;;;;;;5.26;99.32;101189.81;5011941;28;20516;-71
2021/11/17 08:50:32;;;;;;;76.75;44.42;;;;;;;5.27;99.05;101188.88;5010887;28;20045;-71
2021/11/17 08:52:57;;;;;;;70.65;43.65;;;;;;;5.34;98.85;101184.09;5011508;28;20057;-71
2021/11/17 08:55:26;;;;;;;102.15;56.58;;;;;;;5.43;98.54;101194.25;5011286;28;20431;-71
2021/11/17 08:57:53;;;;;;;88.50;51.55;;;;;;;5.41;97.91;101169.50;5011374;28;20026;-71
2021/11/17 09:00:22;;;;;;;72.50;45.58;;;;;;;5.59;97.58;101196.03;4993335;28;20087;-71
2021/11/17 09:02:50;;;;;;;73.85;45.05;;;;;;;5.65;97.61;101195.69;5011291;28;20118;-71
2021/11/17 09:05:19;;;;;;;76.20;43.72;;;;;;;5.63;96.62;101176.28;5013620;28;20409;-71
2021/11/17 09:07:47;;;;;;;75.57;44.28;;;;;;;5.78;96.32;101202.09;5013247;28;20371;-71
2021/11/17 09:10:23;;;;;;;78.30;46.63;;;;;;;5.82;95.89;101187.69;5012511;28;20364;-71
2021/11/17 09:12:49;;;;;;;75.55;43.45;;;;;;;5.88;95.60;101189.16;5004131;28;20038;-70
2021/11/17 09:15:17;;;;;;;70.38;42.20;;;;;;;5.92;95.66;101188.03;5009784;28;20029;-71
2021/11/17 09:17:43;;;;;;;60.33;38.85;;;;;;;6.00;94.89;101188.47;5011043;28;20048;-71
2021/11/17 09:20:11;;;;;;;58.95;36.45;;;;;;;6.04;94.49;101185.56;5011318;28;20045;-71
2021/11/17 09:22:37;;;;;;;62.65;38.15;;;;;;;6.12;93.44;101188.66;5011727;28;20030;-71
2021/11/17 09:25:05;;;;;;;62.92;38.88;;;;;;;6.19;93.55;101173.19;4992593;28;20132;-71
2021/11/17 09:27:34;;;;;;;68.15;40.63;;;;;;;6.26;93.13;101179.91;5009421;28;20028;-71
2021/11/17 09:30:01;;;;;;;62.42;37.17;;;;;;;6.32;92.45;101175.06;5009761;28;20045;-71
2021/11/17 09:32:31;;;;;;;59.90;37.50;;;;;;;6.34;91.90;101167.00;5009580;28;20077;-70
2021/11/17 09:35:05;;;;;;;62.22;37.53;;;;;;;6.42;91.26;101173.59;4991823;28;20046;-71
2021/11/17 09:37:31;;;;;;;62.90;36.90;;;;;;;6.48;91.34;101167.91;5009641;28;20550;-71
2021/11/17 09:39:56;;;;;;;58.60;36.47;;;;;;;6.58;90.20;101163.78;5009490;28;20040;-72
2021/11/17 09:42:23;;;;;;;54.20;35.38;;;;;;;6.60;90.40;101164.56;5009253;28;20034;-71
2021/11/17 09:44:49;;;;;;;55.95;36.05;;;;;;;6.65;89.69;101150.97;5008197;28;20398;-71
2021/11/17 09:47:18;;;;;;;51.53;35.10;;;;;;;6.73;89.96;101157.56;5009509;28;20029;-72
2021/11/17 09:49:56;;;;;;;56.33;34.85;;;;;;;6.81;90.20;101157.94;5009686;28;20044;-71
2021/11/17 09:52:30;;;;;;;54.35;33.33;;;;;;;6.82;89.86;101140.16;5009094;28;20036;-72
2021/11/17 09:55:04;;;;;;;55.05;33.92;;;;;;;6.97;89.88;101149.91;5008042;28;20367;-72
2021/11/17 09:57:34;;;;;;;54.13;31.92;;;;;;;7.03;89.61;101150.41;5009036;28;20133;-71
2021/11/17 10:00:10;;;;;;;49.88;32.85;;;;;;;7.13;89.93;101141.84;5009223;28;20048;-72
2021/11/17 10:03:06;;;;;;;43.40;30.20;;;;;;;7.21;89.99;101136.88;5008915;28;20509;-71
2021/11/17 10:14:28;;;;;;;44.72;28.73;;;;;;;7.53;87.98;101128.63;5009304;28;20156;-71
2021/11/17 10:16:54;;;;;;;43.53;29.65;;;;;;;7.62;87.42;101113.84;4991697;28;20025;-71
2021/11/17 10:19:31;;;;;;;41.85;29.35;;;;;;;7.72;86.88;101122.97;4990994;28;20021;-72
2021/11/17 10:22:07;;;;;;;42.08;29.20;;;;;;;7.77;86.45;101115.56;4991352;28;20494;-71
2021/11/17 10:24:38;;;;;;;41.63;27.42;;;;;;;7.89;85.48;101122.75;5008664;28;20030;-71
2021/11/17 10:27:04;;;;;;;46.00;29.05;;;;;;;7.96;85.60;101121.44;5008849;28;20120;-71
2021/11/17 10:29:43;;;;;;;42.28;28.33;;;;;;;8.02;84.98;101115.66;5008535;28;20110;-71
2021/11/17 10:32:21;;;;;;;44.10;29.02;;;;;;;7.96;84.82;101097.41;5008862;28;20022;-71
2021/11/17 10:34:53;;;;;;;41.47;27.27;;;;;;;8.14;84.07;101109.53;5008953;28;20061;-71
2021/11/17 10:37:57;;;;;;;42.53;27.05;;;;;;;8.20;83.34;101104.69;5012828;28;20053;-72
2021/11/17 10:40:26;;;;;;;46.95;28.13;;;;;;;8.24;82.84;101097.31;5013708;28;20065;-71
2021/11/17 10:43:07;;;;;;;40.13;27.08;;;;;;;8.26;83.10;101092.75;4996378;28;20026;-72
2021/11/17 10:45:37;;;;;;;45.55;28.25;;;;;;;8.34;82.26;101085.06;5013803;28;20478;-72
2021/11/17 10:48:03;;;;;;;44.90;29.25;;;;;;;8.42;82.32;101101.47;5013917;28;20534;-72
2021/11/17 10:50:39;;;;;;;42.05;27.83;;;;;;;8.42;82.04;101094.28;5013489;28;20046;-71
2021/11/17 10:53:10;;;;;;;38.90;26.75;;;;;;;8.48;81.24;101090.38;5013755;28;20054;-71
2021/11/17 10:55:42;;;;;;;49.08;27.63;;;;;;;8.55;81.21;101094.34;4995878;28;20113;-72
2021/11/17 10:58:12;;;;;;;41.70;28.38;;;;;;;8.58;81.53;101089.63;5013624;28;20033;-71
2021/11/17 11:00:51;;;;;;;36.58;26.67;;;;;;;8.67;80.95;101089.00;4995917;28;20096;-71
2021/11/17 11:03:20;;;;;;;36.53;26.50;;;;;;;8.70;81.38;101078.13;5012719;28;20064;-72
2021/11/17 11:06:01;;;;;;;40.42;25.70;;;;;;;8.76;80.81;101087.53;5013655;28;20033;-72
2021/11/17 11:08:39;;;;;;;39.83;27.05;;;;;;;8.77;80.50;101071.38;5013332;28;20458;-71
2021/11/17 11:11:06;;;;;;;39.80;27.65;;;;;;;8.84;80.24;101077.19;5013496;28;20048;-72
2021/11/17 11:13:37;;;;;;;39.85;28.20;;;;;;;8.79;79.77;101063.25;5013188;28;20026;-71
2021/11/17 11:16:43;;;;;;;39.25;27.02;;;;;;;8.89;79.48;101067.00;5013381;28;20036;-71
2021/11/17 11:19:09;;;;;;;39.15;27.85;;;;;;;8.91;79.42;101081.16;5011246;28;20512;-71
2021/11/17 11:21:43;;;;;;;42.55;28.65;;;;;;;8.92;79.73;101072.16;5013159;28;20038;-71
2021/11/17 11:24:11;;;;;;;37.63;25.48;;;;;;;8.92;79.48;101064.13;4995700;28;20032;-71
2021/11/17 11:26:58;;;;;;;40.15;28.40;;;;;;;8.96;79.31;101060.25;4995381;28;20049;-71
2021/11/17 11:30:10;;;;;;;40.63;28.08;;;;;;;9.00;79.24;101059.94;5012627;28;20866;-71
2021/11/17 11:32:35;;;;;;;39.55;26.65;;;;;;;9.01;78.87;101059.00;5012067;28;20041;-71
2021/11/17 11:35:03;;;;;;;41.30;28.27;;;;;;;9.06;78.86;101056.84;5013023;28;20494;-72
2021/11/17 11:37:32;;;;;;;37.97;26.52;;;;;;;9.08;79.10;101056.75;4995214;28;20801;-72
2021/11/17 11:40:01;;;;;;;36.70;26.05;;;;;;;9.10;79.03;101046.81;5013023;28;20520;-72
2021/11/17 11:42:58;;;;;;;39.38;27.65;;;;;;;9.11;78.56;101054.72;5010074;28;20014;-72
2021/11/17 11:45:26;;;;;;;39.75;27.13;;;;;;;9.16;78.42;101046.38;5009791;28;20065;-72
2021/11/17 11:47:58;;;;;;;37.92;28.13;;;;;;;9.15;77.99;101044.63;5008742;28;20045;-71
2021/11/17 11:50:32;;;;;;;39.10;27.20;;;;;;;9.18;78.17;101044.44;5012088;28;20030;-71
2021/11/17 11:53:06;;;;;;;36.25;26.15;;;;;;;9.21;78.82;101039.72;5012522;28;20033;-71
2021/11/17 11:55:50;;;;;;;35.97;25.73;;;;;;;9.24;78.71;101028.81;4994834;28;20026;-71
2021/11/17 11:58:18;;;;;;;42.60;27.55;;;;;;;9.27;78.64;101030.41;4995169;28;20026;-71
2021/11/17 12:00:46;;;;;;;43.15;26.83;;;;;;;9.31;78.18;101028.38;4995011;28;20045;-71
2021/11/17 12:03:17;;;;;;;37.92;26.92;;;;;;;9.26;78.13;101012.63;5012303;28;20048;-71
2021/11/17 12:06:20;;;;;;;42.67;27.38;;;;;;;9.32;78.40;101024.72;5012346;28;20026;-71
2021/11/17 12:08:55;;;;;;;41.92;27.95;;;;;;;9.27;78.15;101011.66;5009072;28;20049;-72
2021/11/17 12:11:26;;;;;;;37.83;26.08;;;;;;;9.37;78.24;101028.78;4994575;28;20045;-72
2021/11/17 12:14:04;;;;;;;39.58;26.15;;;;;;;9.39;78.07;101026.84;5011075;28;20033;-72
2021/11/17 12:16:35;;;;;;;43.58;28.23;;;;;;;9.38;78.06;101021.59;5011903;28;20137;-72
2021/11/17 12:19:03;;;;;;;42.33;27.52;;;;;;;9.40;78.32;101022.34;5012342;28;20072;-72
2021/11/17 12:21:41;;;;;;;37.92;27.23;;;;;;;9.40;78.45;101019.66;5011916;28;20103;-71
2021/11/17 12:24:26;;;;;;;43.33;26.77;;;;;;;9.40;78.45;101020.53;5012108;28;20104;-72
2021/11/17 12:27:06;;;;;;;40.63;26.83;;;;;;;9.43;78.64;101020.31;5012003;28;20118;-72
2021/11/17 12:29:44;;;;;;;37.22;27.45;;;;;;;9.39;78.19;101008.13;5011758;28;20029;-71
2021/11/17 12:32:20;;;;;;;39.63;27.30;;;;;;;9.42;78.38;101026.63;5011754;28;20068;-72
2021/11/17 12:34:57;;;;;;;39.78;27.88;;;;;;;9.39;78.51;101013.47;5010195;28;20076;-71
2021/11/17 12:37:45;;;;;;;41.20;28.08;;;;;;;9.47;78.83;101027.13;5011597;28;20049;-71
2021/11/17 12:40:35;;;;;;;45.67;28.40;;;;;;;9.48;78.65;101028.84;5011676;28;20037;-71
2021/11/17 12:43:04;;;;;;;46.28;30.15;;;;;;;9.52;78.57;101030.34;4994016;28;20029;-72
2021/11/17 12:45:37;;;;;;;42.13;28.35;;;;;;;9.52;78.75;101025.00;5011410;28;20037;-71
2021/11/17 12:48:05;;;;;;;44.53;29.30;;;;;;;9.54;79.23;101022.22;4993647;28;20026;-71
2021/11/17 12:50:40;;;;;;;40.38;28.90;;;;;;;9.57;79.58;101024.69;5011234;28;20112;-71
2021/11/17 12:53:12;;;;;;;42.03;29.30;;;;;;;9.52;79.24;101003.59;5011430;28;20065;-71
2021/11/17 12:55:43;;;;;;;48.90;32.40;;;;;;;9.60;78.78;101006.53;5011295;28;20057;-71
2021/11/17 12:58:15;;;;;;;42.60;30.58;;;;;;;9.57;78.97;101008.59;4993623;28;20116;-71
2021/11/17 13:00:53;;;;;;;42.65;29.05;;;;;;;9.65;79.17;101008.88;5011019;28;20036;-72
2021/11/17 13:03:50;;;;;;;46.78;29.17;;;;;;;9.63;79.28;101003.66;5010964;28;20377;-72
2021/11/17 13:06:21;;;;;;;41.90;30.23;;;;;;;9.70;79.06;101001.38;5007203;28;20077;-71
2021/11/17 13:09:04;;;;;;;44.58;30.13;;;;;;;9.67;79.05;100994.41;5011201;28;20495;-71
2021/11/17 13:11:30;;;;;;;43.75;29.70;;;;;;;9.72;79.42;100996.75;5010942;28;20033;-72
2021/11/17 13:13:58;;;;;;;42.45;29.40;;;;;;;9.68;79.34;101009.53;5011211;28;20045;-71
2021/11/17 13:16:26;;;;;;;41.40;30.13;;;;;;;9.70;79.12;101010.25;5010997;28;20462;-71
2021/11/17 13:18:58;;;;;;;42.75;30.77;;;;;;;9.73;78.98;101015.41;5011320;28;20034;-72
2021/11/17 13:21:26;;;;;;;43.28;30.33;;;;;;;9.72;79.17;101011.00;5010927;28;20034;-71
2021/11/17 13:24:19;;;;;;;45.75;30.13;;;;;;;9.73;78.87;101001.13;4993528;28;20173;-72
2021/11/17 13:26:52;;;;;;;46.78;30.63;;;;;;;9.74;78.81;101010.91;5010997;28;20041;-72
2021/11/17 13:29:17;;;;;;;43.58;28.98;;;;;;;9.75;78.84;101010.78;5010657;28;20069;-71
2021/11/17 13:31:44;;;;;;;43.95;29.33;;;;;;;9.72;78.84;101008.34;4993123;28;20406;-71
2021/11/17 13:34:29;;;;;;;45.97;31.05;;;;;;;9.73;79.12;101010.03;5010515;28;20041;-72
2021/11/17 13:37:14;;;;;;;77.65;48.00;;;;;;;9.73;78.90;100999.31;5009935;28;20489;-71
2021/11/17 13:39:39;;;;;;;;;;;;;;;9.70;78.81;100999.53;4993049;28;20033;-71
2021/11/17 13:42:05;;;;;;;45.28;31.30;;;;;;;9.72;78.94;101000.31;5010847;28;19913;-71
2021/11/17 13:44:31;;;;;;;46.33;30.73;;;;;;;9.70;78.93;100996.88;5010269;28;20030;-71
2021/11/17 13:47:04;;;;;;;44.63;29.58;;;;;;;9.70;78.94;100999.53;5009573;28;20026;-72
2021/11/17 13:49:30;;;;;;;43.47;29.38;;;;;;;9.64;79.33;101002.66;5010304;28;20021;-71
2021/11/17 13:51:56;;;;;;;43.38;29.58;;;;;;;9.69;79.32;101003.19;5010511;28;20104;-71
2021/11/17 13:54:22;;;;;;;46.88;30.00;;;;;;;9.62;79.14;100993.91;5010353;28;20037;-71
2021/11/17 13:56:48;;;;;;;40.33;28.27;;;;;;;9.64;79.51;100997.31;5010488;28;20042;-72
2021/11/17 13:59:14;;;;;;;45.28;29.75;;;;;;;9.65;79.46;101000.84;5010280;28;20025;-72
2021/11/17 14:01:40;;;;;;;43.63;28.85;;;;;;;9.57;79.31;100990.69;5010146;28;20478;-72
2021/11/17 14:04:06;;;;;;;40.25;28.50;;;;;;;9.62;79.54;100995.72;5008858;28;20040;-71
2021/11/17 14:06:32;;;;;;;43.95;29.15;;;;;;;9.56;79.76;100994.34;5009895;28;20034;-72
2021/11/17 14:08:57;;;;;;;44.75;29.90;;;;;;;9.55;79.81;100997.13;4990972;28;20092;-71
2021/11/17 14:11:23;;;;;;;45.05;29.73;;;;;;;9.55;80.40;101003.38;4991522;28;20033;-71
2021/11/17 14:13:48;;;;;;;49.70;30.02;;;;;;;9.55;80.21;101007.84;5009999;28;20042;-71
2021/11/17 14:16:17;;;;;;;43.33;28.92;;;;;;;9.54;80.42;101012.34;5010070;28;20455;-71
2021/11/17 14:18:43;;;;;;;46.88;29.23;;;;;;;9.48;80.55;101011.94;5009816;28;20030;-71